Terminal Aerodrome Forecast
Issued by NWS

Home | Current Version | Previous Version | Text Only | Print | Product List | Glossary On
Versions: 1 2 3 4 5 6 7 8 9 10 11 12 13 14 15
553
FTUS42 KTBW 060547
TAFLAL
TAF
KLAL 060547Z 0606/0706 18008KT P6SM SCT070 OVC250
     FM061200 20012G17KT P6SM VCSH SCT015 BKN030 OVC050
     FM061400 20013G22KT 6SM SHRA VCTS SCT015CB OVC025
      TEMPO 0614/0617 VRB20G25KT 3SM TSRA BKN015CB
     FM062000 24015G25KT P6SM SHRA SCT015 OVC025
     FM070100 27005KT P6SM SCT015 BKN030 OVC050
      AMD NOT SKED TIL 061100=

USA.gov is the U.S. government's official web portal to all federal, state and local government web resources and services.